GW0963 Weather Reports


time (UTC)temp
C
wind
direction
speed
KPH
gust
KPH
rain 1hr
cm
rain 24hr
cm
rain mn
cm
humidity
%
barometer
mb
20260503174120 17 284 17.7 25.7 0.00 0.00 0.00 43 1003.5
20260503173615 18 249 6.4 30.6 0.00 0.00 0.00 43 1003.7
20260503173112 18 230 17.7 25.7 0.00 0.00 0.00 43 1003.6
20260503172608 17 251 14.5 24.1 0.00 0.00 0.00 43 1003.5
20260503172106 17 278 17.7 30.6 0.00 0.00 0.00 43 1003.7
20260503171603 17 227 17.7 30.6 0.00 0.00 0.00 44 1003.7
20260503171100 17 275 12.9 22.5 0.00 0.00 0.00 44 1003.8
20260503170556 17 223 19.3 29.0 0.00 0.00 0.00 44 1003.7
20260503150948 15 203 9.7 32.2 0.00 0.00 0.00 48 1005.0
20260503150445 15 223 11.3 33.8 0.00 0.00 0.00 48 1005.0
20260503131338 11 208 9.7 19.3 0.00 0.00 0.00 54 1005.6
20260503130835 11 223 8.0 17.7 0.00 0.00 0.00 54 1005.5
20260503130333 11 221 6.4 12.9 0.00 0.00 0.00 54 1005.5
20260503110727 9 102 3.2 6.4 0.00 0.00 0.00 67 1006.3
20260503110224 9 145 4.8 6.4 0.00 0.00 0.00 66 1006.1
20260503100150 9 93 3.2 4.8 0.00 0.00 0.00 71 1006.7
20260503090109 10 247 3.2 4.8 0.00 0.00 0.00 62 1007.3
20260503081545 10 280 8.0 11.3 0.00 0.00 0.00 57 1007.9
20260503081042 11 316 6.4 14.5 0.00 0.00 0.00 56 1008.0
20260503080538 11 236 8.0 11.3 0.00 0.00 0.00 56 1007.9
20260503072512 11 223 4.8 12.9 0.00 0.00 0.00 52 1007.8
20260503072009 11 279 0.0 8.0 0.00 0.00 0.00 52 1007.8
20260503071506 11 237 3.2 11.3 0.00 0.00 0.00 52 1008.1
20260503071002 10 181 3.2 8.0 0.00 0.00 0.00 54 1007.9
20260503070459 10 135 4.8 11.3 0.00 0.00 0.00 53 1007.8
20260503054923 10 73 3.2 4.8 0.00 0.00 0.00 56 1008.9
20260503054419 10 78 4.8 8.0 0.00 0.00 0.00 56 1008.6
20260503053917 10 64 4.8 6.4 0.00 0.00 0.00 55 1009.0
20260503053415 10 84 6.4 8.0 0.00 0.00 0.00 55 1009.0
20260503052911 10 110 8.0 8.0 0.00 0.00 0.00 55 1008.9
20260503052408 10 94 6.4 6.4 0.00 0.00 0.00 54 1009.0
20260503051904 10 116 6.4 8.0 0.00 0.00 0.00 54 1009.1
20260503051400 10 133 6.4 6.4 0.00 0.00 0.00 54 1009.2
20260503050858 10 102 6.4 14.5 0.00 0.00 0.00 54 1009.2
20260503050354 10 105 4.8 6.4 0.00 0.00 0.00 55 1009.2
20260503045851 10 119 4.8 8.0 0.00 0.00 0.00 55 1009.2
20260503045349 10 104 6.4 8.0 0.00 0.00 0.00 55 1009.3
20260503044845 10 109 4.8 8.0 0.00 0.00 0.00 55 1009.2
20260503044342 10 110 3.2 8.0 0.00 0.00 0.00 55 1009.3
20260503043839 10 104 3.2 6.4 0.00 0.00 0.00 55 1009.2
20260503043336 10 121 1.6 4.8 0.00 0.00 0.00 56 1009.4
20260503042832 10 112 3.2 3.2 0.00 0.00 0.00 55 1009.3
20260503042329 10 123 4.8 6.4 0.00 0.00 0.00 53 1009.6
20260503041825 11 97 3.2 3.2 0.00 0.00 0.00 53 1009.5
20260503041323 11 161 3.2 6.4 0.00 0.00 0.00 51 1009.6
20260503040821 11 113 3.2 4.8 0.00 0.00 0.00 50 1009.5
20260503040318 11 154 3.2 4.8 0.00 0.00 0.00 49 1009.6
20260503035815 11 131 1.6 4.8 0.00 0.00 0.00 49 1009.6
20260503035312 11 189 1.6 4.8 0.00 0.00 0.00 49 1009.6
20260503034809 11 155 3.2 9.7 0.00 0.00 0.00 49 1009.8
20260503034306 12 147 4.8 6.4 0.00 0.00 0.00 48 1009.7
20260503033803 12 173 3.2 8.0 0.00 0.00 0.00 47 1009.9
20260503033300 12 135 1.6 6.4 0.00 0.00 0.00 48 1009.8
20260503032759 12 169 3.2 6.4 0.00 0.00 0.00 47 1009.9
20260503032257 12 180 1.6 3.2 0.00 0.00 0.00 47 1010.0
20260503031754 12 128 0.0 4.8 0.00 0.00 0.00 46 1010.1
20260503031252 12 173 0.0 4.8 0.00 0.00 0.00 46 1010.0
20260503030748 12 190 4.8 6.4 0.00 0.00 0.00 46 1010.2
20260503030245 12 174 1.6 8.0 0.00 0.00 0.00 46 1010.3
20260503025741 12 183 0.0 4.8 0.00 0.00 0.00 46 1010.5
20260503025239 11 183 0.0 3.2 0.00 0.00 0.00 46 1010.4
20260503024736 11 177 3.2 8.0 0.00 0.00 0.00 46 1010.3
20260503024233 11 156 1.6 6.4 0.00 0.00 0.00 46 1010.5
20260503023729 11 162 1.6 3.2 0.00 0.00 0.00 47 1010.6
20260503023226 11 171 1.6 3.2 0.00 0.00 0.00 47 1010.3
20260503022722 11 149 1.6 4.8 0.00 0.00 0.00 47 1010.4
20260503022217 11 148 1.6 4.8 0.00 0.00 0.00 47 1010.6
20260503021714 11 135 3.2 4.8 0.00 0.00 0.00 48 1010.6
20260503021210 11 137 3.2 4.8 0.00 0.00 0.00 47 1010.4
20260503020708 12 160 3.2 3.2 0.00 0.00 0.00 46 1010.6
20260503020205 12 129 1.6 3.2 0.00 0.00 0.00 45 1010.6
20260503015702 12 168 0.0 3.2 0.00 0.00 0.00 45 1010.9
20260503015159 12 192 4.8 6.4 0.00 0.00 0.00 45 1010.5
20260503014654 12 173 3.2 4.8 0.00 0.00 0.00 44 1010.8
20260503014152 12 203 3.2 6.4 0.00 0.00 0.00 44 1010.8
20260503013649 12 208 1.6 6.4 0.00 0.00 0.00 44 1010.9
20260503013147 12 254 1.6 6.4 0.00 0.00 0.00 43 1010.7
20260503012644 12 230 4.8 8.0 0.00 0.00 0.00 43 1011.0
20260503012141 12 240 1.6 8.0 0.00 0.00 0.00 42 1010.7
20260503011637 12 242 4.8 9.7 0.00 0.00 0.00 42 1010.9
20260503011135 13 258 4.8 14.5 0.00 0.00 0.00 41 1011.0
20260503010631 13 254 3.2 12.9 0.00 0.00 0.00 41 1011.0
20260503010128 13 256 4.8 12.9 0.00 0.00 0.00 41 1011.0
20260503005625 13 287 4.8 11.3 0.00 0.00 0.00 40 1010.8
20260503005122 13 243 6.4 11.3 0.00 0.00 0.00 40 1011.0
20260503004618 13 282 0.0 11.3 0.00 0.00 0.00 39 1010.9
20260503004117 13 225 4.8 17.7 0.00 0.00 0.00 38 1011.0
20260503003614 13 272 9.7 25.7 0.00 0.00 0.00 37 1011.0
20260503003111 13 239 8.0 16.1 0.00 0.00 0.00 37 1011.1
20260503002608 13 263 4.8 16.1 0.00 0.00 0.00 36 1011.1
20260503002104 13 247 9.7 17.7 0.00 0.00 0.00 35 1011.1
20260503001600 14 228 9.7 11.3 0.00 0.00 0.00 35 1011.1
20260503001058 14 241 8.0 16.1 0.00 0.00 0.00 34 1011.4
20260503000555 14 267 16.1 19.3 0.00 0.00 0.00 33 1011.3
20260503000052 14 244 9.7 22.5 0.00 0.00 0.00 33 1011.4
20260502235548 14 218 8.0 24.1 0.00 0.00 0.00 33 1011.4
20260502235047 14 299 6.4 20.9 0.00 0.00 0.00 33 1011.3
20260502234542 14 268 16.1 25.7 0.00 0.00 0.00 33 1011.7
20260502234040 14 235 12.9 24.1 0.00 0.00 0.00 33 1011.6
20260502233540 14 252 11.3 25.7 0.00 0.00 0.00 33 1011.8
20260502233038 15 271 14.5 35.4 0.00 0.00 0.00 33 1011.4
20260502232534 15 263 11.3 19.3 0.00 0.00 0.00 32 1011.4
20260502232031 15 263 11.3 33.8 0.00 0.00 0.00 32 1011.7
20260502231528 15 280 14.5 37.0 0.00 0.00 0.00 32 1011.8
20260502231026 15 234 14.5 27.4 0.00 0.00 0.00 33 1011.6
20260502230524 15 305 6.4 22.5 0.00 0.00 0.00 33 1011.8
20260502230022 15 273 11.3 25.7 0.00 0.00 0.00 32 1011.8
20260502225517 15 283 11.3 16.1 0.00 0.00 0.00 33 1011.7
20260502225015 15 264 8.0 16.1 0.00 0.00 0.00 33 1011.9
20260502224511 14 210 4.8 16.1 0.00 0.00 0.00 34 1011.8
20260502224008 14 334 6.4 24.1 0.00 0.00 0.00 34 1011.9
20260502223506 15 249 11.3 25.7 0.00 0.00 0.00 34 1011.9
20260502223004 15 241 9.7 19.3 0.00 0.00 0.00 33 1011.9
20260502222500 15 278 16.1 30.6 0.00 0.00 0.00 33 1011.9
20260502221956 15 228 24.1 24.1 0.00 0.00 0.00 33 1012.0
20260502221452 15 239 17.7 27.4 0.00 0.00 0.00 32 1012.2
20260502220950 15 287 14.5 32.2 0.00 0.00 0.00 33 1012.0
20260502220445 15 266 12.9 24.1 0.00 0.00 0.00 32 1012.1
20260502215942 15 236 24.1 27.4 0.00 0.00 0.00 32 1012.1
20260502215440 15 233 6.4 24.1 0.00 0.00 0.00 32 1012.2
20260502214937 15 289 12.9 32.2 0.00 0.00 0.00 32 1012.3
20260502214433 15 263 16.1 33.8 0.00 0.00 0.00 32 1012.2
20260502213931 15 271 17.7 25.7 0.00 0.00 0.00 31 1012.1
20260502213427 15 223 12.9 32.2 0.00 0.00 0.00 31 1012.3
20260502212926 15 227 17.7 22.5 0.00 0.00 0.00 31 1012.2
20260502212424 15 253 20.9 29.0 0.00 0.00 0.00 31 1012.3
20260502211921 15 261 17.7 25.7 0.00 0.00 0.00 31 1012.3
20260502211417 15 285 8.0 19.3 0.00 0.00 0.00 32 1012.4
20260502210914 15 272 9.7 30.6 0.00 0.00 0.00 31 1012.6
20260502210411 14 283 20.9 30.6 0.00 0.00 0.00 32 1012.6
20260502205909 15 232 4.8 25.7 0.00 0.00 0.00 33 1012.4
20260502205404 14 253 8.0 22.5 0.00 0.00 0.00 33 1012.7
20260502204902 15 298 24.1 32.2 0.00 0.00 0.00 32 1012.8
20260502204359 15 198 6.4 40.2 0.00 0.00 0.00 32 1012.8
20260502203856 14 237 37.0 37.0 0.00 0.00 0.00 31 1012.8
20260502203354 14 236 9.7 24.1 0.00 0.00 0.00 31 1013.0
20260502202849 14 235 8.0 35.4 0.00 0.00 0.00 32 1012.8
20260502202347 13 248 4.8 14.5 0.00 0.00 0.00 35 1013.1
20260502201844 13 278 17.7 30.6 0.00 0.00 0.00 34 1013.2
20260502201340 14 237 12.9 29.0 0.00 0.00 0.00 34 1013.1
20260502200837 15 212 24.1 30.6 0.00 0.00 0.00 32 1013.2
20260502200332 13 224 16.1 29.0 0.00 0.00 0.00 34 1013.3
20260502195831 13 211 17.7 24.1 0.00 0.00 0.00 34 1013.3
20260502195327 13 278 9.7 22.5 0.00 0.00 0.00 34 1013.2
20260502194824 13 293 25.7 25.7 0.00 0.00 0.00 33 1013.3
20260502194321 14 238 12.9 29.0 0.00 0.00 0.00 33 1013.5
20260502193817 14 261 9.7 29.0 0.00 0.00 0.00 32 1013.7
20260502193314 15 235 14.5 19.3 0.00 0.00 0.00 32 1013.6
20260502192809 13 267 11.3 32.2 0.00 0.00 0.00 33 1013.7
20260502192307 13 285 12.9 14.5 0.00 0.00 0.00 32 1013.8
20260502191804 13 286 20.9 24.1 0.00 0.00 0.00 34 1013.7
20260502191302 13 240 12.9 17.7 0.00 0.00 0.00 34 1013.9
20260502190759 13 278 9.7 20.9 0.00 0.00 0.00 33 1014.2
20260502190256 13 259 19.3 32.2 0.00 0.00 0.00 33 1014.1
20260502185751 13 295 24.1 37.0 0.00 0.00 0.00 32 1014.2
20260502185247 13 232 14.5 29.0 0.00 0.00 0.00 34 1014.1
20260502184744 13 300 9.7 32.2 0.00 0.00 0.00 34 1014.1
20260502184239 13 281 9.7 14.5 0.00 0.00 0.00 34 1014.2
20260502183737 13 287 12.9 22.5 0.00 0.00 0.00 33 1014.3
20260502183232 12 281 12.9 17.7 0.00 0.00 0.00 34 1014.5
20260502182728 13 266 11.3 40.2 0.00 0.00 0.00 34 1014.7
20260502182223 12 230 8.0 25.7 0.00 0.00 0.00 33 1014.8
20260502181720 13 279 9.7 29.0 0.00 0.00 0.00 34 1014.6
20260502181220 13 230 9.7 22.5 0.00 0.00 0.00 34 1014.7
20260502180716 12 234 8.0 30.6 0.00 0.00 0.00 34 1014.8
20260502180214 12 230 11.3 22.5 0.00 0.00 0.00 35 1014.6